sensor_id;sensor_type;location;lat;lon;timestamp;P1;durP1;ratioP1;P2;durP2;ratioP2
34775;SDS011;20989;52.566;13.346;2022-12-18T00:02:27;4.00;;;3.70;;
34775;SDS011;20989;52.566;13.346;2022-12-18T00:05:27;4.20;;;3.78;;
34775;SDS011;20989;52.566;13.346;2022-12-18T00:08:28;3.78;;;3.47;;
34775;SDS011;20989;52.566;13.346;2022-12-18T00:11:29;3.92;;;3.50;;
34775;SDS011;20989;52.566;13.346;2022-12-18T00:14:30;3.50;;;3.20;;
34775;SDS011;20989;52.566;13.346;2022-12-18T00:17:31;3.55;;;3.25;;
34775;SDS011;20989;52.566;13.346;2022-12-18T00:20:36;3.83;;;3.50;;
34775;SDS011;20989;52.566;13.346;2022-12-18T00:23:38;3.90;;;3.58;;
34775;SDS011;20989;52.566;13.346;2022-12-18T00:26:41;3.65;;;3.35;;
34775;SDS011;20989;52.566;13.346;2022-12-18T00:29:42;3.60;;;3.40;;
34775;SDS011;20989;52.566;13.346;2022-12-18T00:32:42;3.03;;;2.83;;
34775;SDS011;20989;52.566;13.346;2022-12-18T00:35:43;3.53;;;3.22;;
34775;SDS011;20989;52.566;13.346;2022-12-18T00:38:44;3.67;;;3.38;;
34775;SDS011;20989;52.566;13.346;2022-12-18T00:41:45;3.55;;;3.33;;
34775;SDS011;20989;52.566;13.346;2022-12-18T00:45:05;3.33;;;3.08;;
34775;SDS011;20989;52.566;13.346;2022-12-18T00:48:06;3.88;;;3.58;;
34775;SDS011;20989;52.566;13.346;2022-12-18T00:51:07;4.38;;;3.97;;
34775;SDS011;20989;52.566;13.346;2022-12-18T00:54:08;3.33;;;3.13;;
34775;SDS011;20989;52.566;13.346;2022-12-18T00:57:09;3.58;;;3.28;;
34775;SDS011;20989;52.566;13.346;2022-12-18T01:00:11;3.28;;;3.05;;
34775;SDS011;20989;52.566;13.346;2022-12-18T01:03:14;3.30;;;3.10;;
34775;SDS011;20989;52.566;13.346;2022-12-18T01:06:15;3.42;;;3.20;;
34775;SDS011;20989;52.566;13.346;2022-12-18T01:09:16;3.63;;;3.33;;
34775;SDS011;20989;52.566;13.346;2022-12-18T01:12:17;3.75;;;3.45;;
34775;SDS011;20989;52.566;13.346;2022-12-18T01:15:18;3.60;;;3.30;;
34775;SDS011;20989;52.566;13.346;2022-12-18T01:18:20;3.85;;;3.55;;
34775;SDS011;20989;52.566;13.346;2022-12-18T01:21:21;3.15;;;2.95;;
34775;SDS011;20989;52.566;13.346;2022-12-18T01:24:23;3.90;;;3.58;;
34775;SDS011;20989;52.566;13.346;2022-12-18T01:27:24;3.55;;;3.35;;
34775;SDS011;20989;52.566;13.346;2022-12-18T01:30:25;4.13;;;3.83;;
34775;SDS011;20989;52.566;13.346;2022-12-18T01:33:25;3.20;;;2.97;;
34775;SDS011;20989;52.566;13.346;2022-12-18T01:36:32;4.03;;;3.67;;
34775;SDS011;20989;52.566;13.346;2022-12-18T01:39:34;3.40;;;3.10;;
34775;SDS011;20989;52.566;13.346;2022-12-18T01:42:35;3.10;;;2.90;;
34775;SDS011;20989;52.566;13.346;2022-12-18T01:45:36;3.15;;;2.95;;
34775;SDS011;20989;52.566;13.346;2022-12-18T01:48:37;3.17;;;2.97;;
34775;SDS011;20989;52.566;13.346;2022-12-18T01:51:39;3.03;;;2.83;;
34775;SDS011;20989;52.566;13.346;2022-12-18T01:54:40;4.32;;;3.92;;
34775;SDS011;20989;52.566;13.346;2022-12-18T01:57:41;3.97;;;3.65;;
34775;SDS011;20989;52.566;13.346;2022-12-18T02:00:42;3.38;;;3.08;;
34775;SDS011;20989;52.566;13.346;2022-12-18T02:03:43;3.88;;;3.58;;
34775;SDS011;20989;52.566;13.346;2022-12-18T02:06:44;3.20;;;3.00;;
34775;SDS011;20989;52.566;13.346;2022-12-18T02:09:48;3.10;;;2.90;;
34775;SDS011;20989;52.566;13.346;2022-12-18T02:16:08;3.28;;;3.08;;
34775;SDS011;20989;52.566;13.346;2022-12-18T02:29:15;3.30;;;3.00;;
34775;SDS011;20989;52.566;13.346;2022-12-18T02:32:39;2.70;;;2.50;;
34775;SDS011;20989;52.566;13.346;2022-12-18T02:35:43;3.30;;;3.03;;
34775;SDS011;20989;52.566;13.346;2022-12-18T02:38:45;2.92;;;2.70;;
34775;SDS011;20989;52.566;13.346;2022-12-18T02:41:47;3.03;;;2.83;;
34775;SDS011;20989;52.566;13.346;2022-12-18T02:44:49;3.00;;;2.80;;
34775;SDS011;20989;52.566;13.346;2022-12-18T02:47:51;2.88;;;2.67;;
34775;SDS011;20989;52.566;13.346;2022-12-18T02:50:59;3.20;;;3.00;;
34775;SDS011;20989;52.566;13.346;2022-12-18T02:54:06;2.85;;;2.65;;
34775;SDS011;20989;52.566;13.346;2022-12-18T02:57:23;3.03;;;2.83;;
34775;SDS011;20989;52.566;13.346;2022-12-18T03:00:37;2.90;;;2.70;;
34775;SDS011;20989;52.566;13.346;2022-12-18T03:06:56;2.90;;;2.70;;
34775;SDS011;20989;52.566;13.346;2022-12-18T03:09:59;3.25;;;3.05;;
34775;SDS011;20989;52.566;13.346;2022-12-18T03:13:23;3.55;;;3.25;;
34775;SDS011;20989;52.566;13.346;2022-12-18T03:16:33;2.80;;;2.60;;
34775;SDS011;20989;52.566;13.346;2022-12-18T03:19:36;3.38;;;3.08;;
34775;SDS011;20989;52.566;13.346;2022-12-18T03:22:40;3.10;;;2.90;;
34775;SDS011;20989;52.566;13.346;2022-12-18T03:25:44;3.92;;;3.35;;
34775;SDS011;20989;52.566;13.346;2022-12-18T03:28:55;3.35;;;3.05;;
34775;SDS011;20989;52.566;13.346;2022-12-18T03:32:02;3.40;;;3.20;;
34775;SDS011;20989;52.566;13.346;2022-12-18T03:35:08;3.45;;;3.15;;
34775;SDS011;20989;52.566;13.346;2022-12-18T03:38:13;3.70;;;3.38;;
34775;SDS011;20989;52.566;13.346;2022-12-18T03:41:33;3.17;;;2.97;;
34775;SDS011;20989;52.566;13.346;2022-12-18T03:51:10;3.65;;;3.35;;
34775;SDS011;20989;52.566;13.346;2022-12-18T03:54:16;3.00;;;2.80;;
34775;SDS011;20989;52.566;13.346;2022-12-18T03:57:22;3.50;;;3.20;;
34775;SDS011;20989;52.566;13.346;2022-12-18T04:00:27;3.80;;;3.50;;
34775;SDS011;20989;52.566;13.346;2022-12-18T04:03:30;2.90;;;2.70;;
34775;SDS011;20989;52.566;13.346;2022-12-18T04:06:32;3.58;;;3.28;;
34775;SDS011;20989;52.566;13.346;2022-12-18T04:09:36;3.40;;;3.17;;
34775;SDS011;20989;52.566;13.346;2022-12-18T04:12:39;3.08;;;2.88;;
34775;SDS011;20989;52.566;13.346;2022-12-18T04:15:40;3.15;;;2.95;;
34775;SDS011;20989;52.566;13.346;2022-12-18T04:18:41;3.63;;;3.33;;
34775;SDS011;20989;52.566;13.346;2022-12-18T04:21:42;3.25;;;3.05;;
34775;SDS011;20989;52.566;13.346;2022-12-18T04:24:43;3.72;;;3.42;;
34775;SDS011;20989;52.566;13.346;2022-12-18T04:27:44;2.90;;;2.70;;
34775;SDS011;20989;52.566;13.346;2022-12-18T04:30:44;3.30;;;3.10;;
34775;SDS011;20989;52.566;13.346;2022-12-18T04:33:45;3.28;;;3.08;;
34775;SDS011;20989;52.566;13.346;2022-12-18T04:36:46;3.58;;;3.28;;
34775;SDS011;20989;52.566;13.346;2022-12-18T04:39:47;3.42;;;3.15;;
34775;SDS011;20989;52.566;13.346;2022-12-18T04:42:48;3.13;;;2.92;;
34775;SDS011;20989;52.566;13.346;2022-12-18T04:45:49;3.92;;;3.65;;
34775;SDS011;20989;52.566;13.346;2022-12-18T04:48:49;3.35;;;3.15;;
34775;SDS011;20989;52.566;13.346;2022-12-18T04:51:50;3.50;;;3.20;;
34775;SDS011;20989;52.566;13.346;2022-12-18T04:54:51;3.50;;;3.20;;
34775;SDS011;20989;52.566;13.346;2022-12-18T04:57:52;3.17;;;2.97;;
34775;SDS011;20989;52.566;13.346;2022-12-18T05:00:53;4.43;;;4.03;;
34775;SDS011;20989;52.566;13.346;2022-12-18T05:03:54;3.58;;;3.38;;
34775;SDS011;20989;52.566;13.346;2022-12-18T05:06:54;3.92;;;3.63;;
34775;SDS011;20989;52.566;13.346;2022-12-18T05:09:55;3.83;;;3.40;;
34775;SDS011;20989;52.566;13.346;2022-12-18T05:12:56;3.63;;;3.33;;
34775;SDS011;20989;52.566;13.346;2022-12-18T05:15:59;3.65;;;3.35;;
34775;SDS011;20989;52.566;13.346;2022-12-18T05:19:00;3.60;;;3.30;;
34775;SDS011;20989;52.566;13.346;2022-12-18T05:22:01;3.60;;;3.40;;
34775;SDS011;20989;52.566;13.346;2022-12-18T05:25:01;3.97;;;3.67;;
34775;SDS011;20989;52.566;13.346;2022-12-18T05:28:02;3.70;;;3.40;;
34775;SDS011;20989;52.566;13.346;2022-12-18T05:31:04;3.58;;;3.28;;
34775;SDS011;20989;52.566;13.346;2022-12-18T05:34:05;3.75;;;3.45;;
34775;SDS011;20989;52.566;13.346;2022-12-18T05:37:06;4.03;;;3.53;;
34775;SDS011;20989;52.566;13.346;2022-12-18T05:40:07;4.15;;;3.85;;
34775;SDS011;20989;52.566;13.346;2022-12-18T05:43:08;3.30;;;3.10;;
34775;SDS011;20989;52.566;13.346;2022-12-18T05:46:13;4.45;;;4.07;;
34775;SDS011;20989;52.566;13.346;2022-12-18T05:49:15;3.90;;;3.60;;
34775;SDS011;20989;52.566;13.346;2022-12-18T05:52:16;3.83;;;3.53;;
34775;SDS011;20989;52.566;13.346;2022-12-18T05:55:17;3.78;;;3.47;;
34775;SDS011;20989;52.566;13.346;2022-12-18T05:58:17;3.72;;;3.42;;
34775;SDS011;20989;52.566;13.346;2022-12-18T06:01:20;3.75;;;3.55;;
34775;SDS011;20989;52.566;13.346;2022-12-18T06:04:23;3.47;;;3.17;;
34775;SDS011;20989;52.566;13.346;2022-12-18T06:07:24;3.88;;;3.58;;
34775;SDS011;20989;52.566;13.346;2022-12-18T06:10:24;3.92;;;3.58;;
34775;SDS011;20989;52.566;13.346;2022-12-18T06:13:25;3.88;;;3.58;;
34775;SDS011;20989;52.566;13.346;2022-12-18T06:16:26;3.92;;;3.63;;
34775;SDS011;20989;52.566;13.346;2022-12-18T06:19:28;3.75;;;3.45;;
34775;SDS011;20989;52.566;13.346;2022-12-18T06:22:30;3.90;;;3.60;;
34775;SDS011;20989;52.566;13.346;2022-12-18T06:25:32;3.92;;;3.63;;
34775;SDS011;20989;52.566;13.346;2022-12-18T06:28:33;3.92;;;3.63;;
34775;SDS011;20989;52.566;13.346;2022-12-18T06:31:34;3.85;;;3.55;;
34775;SDS011;20989;52.566;13.346;2022-12-18T06:34:36;3.97;;;3.67;;
34775;SDS011;20989;52.566;13.346;2022-12-18T06:37:37;4.57;;;3.40;;
34775;SDS011;20989;52.566;13.346;2022-12-18T06:40:38;3.90;;;3.60;;
34775;SDS011;20989;52.566;13.346;2022-12-18T06:43:39;4.22;;;3.92;;
34775;SDS011;20989;52.566;13.346;2022-12-18T06:46:40;3.80;;;3.50;;
34775;SDS011;20989;52.566;13.346;2022-12-18T06:49:40;3.47;;;3.28;;
34775;SDS011;20989;52.566;13.346;2022-12-18T06:52:41;3.97;;;3.67;;
34775;SDS011;20989;52.566;13.346;2022-12-18T06:55:43;4.00;;;3.70;;
34775;SDS011;20989;52.566;13.346;2022-12-18T06:58:44;3.75;;;3.45;;
34775;SDS011;20989;52.566;13.346;2022-12-18T07:01:45;3.72;;;3.42;;
34775;SDS011;20989;52.566;13.346;2022-12-18T07:04:45;3.28;;;3.08;;
34775;SDS011;20989;52.566;13.346;2022-12-18T07:07:46;4.43;;;4.03;;
34775;SDS011;20989;52.566;13.346;2022-12-18T07:10:47;4.45;;;4.05;;
34775;SDS011;20989;52.566;13.346;2022-12-18T07:13:49;3.72;;;3.45;;
34775;SDS011;20989;52.566;13.346;2022-12-18T07:16:49;3.85;;;3.55;;
34775;SDS011;20989;52.566;13.346;2022-12-18T07:19:50;4.07;;;3.78;;
34775;SDS011;20989;52.566;13.346;2022-12-18T07:22:51;3.67;;;3.38;;
34775;SDS011;20989;52.566;13.346;2022-12-18T07:25:51;4.93;;;4.43;;
34775;SDS011;20989;52.566;13.346;2022-12-18T07:28:54;4.30;;;3.90;;
34775;SDS011;20989;52.566;13.346;2022-12-18T07:31:57;4.45;;;4.05;;
34775;SDS011;20989;52.566;13.346;2022-12-18T07:34:58;3.90;;;3.60;;
34775;SDS011;20989;52.566;13.346;2022-12-18T07:37:58;4.47;;;4.18;;
34775;SDS011;20989;52.566;13.346;2022-12-18T07:41:06;4.30;;;4.00;;
34775;SDS011;20989;52.566;13.346;2022-12-18T07:44:12;4.20;;;3.83;;
34775;SDS011;20989;52.566;13.346;2022-12-18T07:47:13;4.70;;;4.30;;
34775;SDS011;20989;52.566;13.346;2022-12-18T07:50:13;4.43;;;4.10;;
34775;SDS011;20989;52.566;13.346;2022-12-18T07:53:14;4.00;;;3.70;;
34775;SDS011;20989;52.566;13.346;2022-12-18T07:56:15;3.88;;;3.58;;
34775;SDS011;20989;52.566;13.346;2022-12-18T07:59:15;3.55;;;3.35;;
34775;SDS011;20989;52.566;13.346;2022-12-18T08:02:17;3.70;;;3.50;;
34775;SDS011;20989;52.566;13.346;2022-12-18T08:05:17;3.88;;;3.58;;
34775;SDS011;20989;52.566;13.346;2022-12-18T08:08:18;3.83;;;3.53;;
34775;SDS011;20989;52.566;13.346;2022-12-18T08:11:19;3.80;;;3.50;;
34775;SDS011;20989;52.566;13.346;2022-12-18T08:14:20;4.45;;;4.05;;
34775;SDS011;20989;52.566;13.346;2022-12-18T08:17:20;4.68;;;4.13;;
34775;SDS011;20989;52.566;13.346;2022-12-18T08:20:21;3.65;;;3.45;;
34775;SDS011;20989;52.566;13.346;2022-12-18T08:23:21;3.65;;;3.35;;
34775;SDS011;20989;52.566;13.346;2022-12-18T08:26:24;3.67;;;3.38;;
34775;SDS011;20989;52.566;13.346;2022-12-18T08:29:27;3.85;;;3.55;;
34775;SDS011;20989;52.566;13.346;2022-12-18T08:32:27;4.07;;;3.78;;
34775;SDS011;20989;52.566;13.346;2022-12-18T08:35:28;3.72;;;3.42;;
34775;SDS011;20989;52.566;13.346;2022-12-18T08:38:29;3.33;;;3.13;;
34775;SDS011;20989;52.566;13.346;2022-12-18T08:41:29;4.28;;;3.95;;
34775;SDS011;20989;52.566;13.346;2022-12-18T08:44:30;3.80;;;3.50;;
34775;SDS011;20989;52.566;13.346;2022-12-18T08:47:37;4.38;;;3.97;;
34775;SDS011;20989;52.566;13.346;2022-12-18T08:50:38;3.08;;;2.88;;
34775;SDS011;20989;52.566;13.346;2022-12-18T08:53:38;3.63;;;3.42;;
34775;SDS011;20989;52.566;13.346;2022-12-18T08:56:39;3.65;;;3.35;;
34775;SDS011;20989;52.566;13.346;2022-12-18T08:59:40;3.63;;;3.33;;
34775;SDS011;20989;52.566;13.346;2022-12-18T09:02:40;4.22;;;3.83;;
34775;SDS011;20989;52.566;13.346;2022-12-18T09:05:41;3.60;;;3.30;;
34775;SDS011;20989;52.566;13.346;2022-12-18T09:08:42;3.47;;;3.17;;
34775;SDS011;20989;52.566;13.346;2022-12-18T09:11:44;4.03;;;3.72;;
34775;SDS011;20989;52.566;13.346;2022-12-18T09:14:44;3.67;;;3.38;;
34775;SDS011;20989;52.566;13.346;2022-12-18T09:17:45;3.67;;;3.38;;
34775;SDS011;20989;52.566;13.346;2022-12-18T09:20:46;3.80;;;3.50;;
34775;SDS011;20989;52.566;13.346;2022-12-18T09:23:50;3.40;;;3.20;;
34775;SDS011;20989;52.566;13.346;2022-12-18T09:26:54;3.60;;;3.30;;
34775;SDS011;20989;52.566;13.346;2022-12-18T09:29:55;3.58;;;3.28;;
34775;SDS011;20989;52.566;13.346;2022-12-18T09:32:56;3.45;;;3.25;;
34775;SDS011;20989;52.566;13.346;2022-12-18T09:35:56;11.75;;;3.88;;
34775;SDS011;20989;52.566;13.346;2022-12-18T09:38:57;3.70;;;3.40;;
34775;SDS011;20989;52.566;13.346;2022-12-18T09:41:58;5.03;;;3.70;;
34775;SDS011;20989;52.566;13.346;2022-12-18T09:44:59;6.80;;;4.45;;
34775;SDS011;20989;52.566;13.346;2022-12-18T09:48:01;6.13;;;3.78;;
34775;SDS011;20989;52.566;13.346;2022-12-18T09:51:03;22.00;;;4.93;;
34775;SDS011;20989;52.566;13.346;2022-12-18T09:54:26;5.35;;;3.90;;
34775;SDS011;20989;52.566;13.346;2022-12-18T09:57:33;7.07;;;3.10;;
34775;SDS011;20989;52.566;13.346;2022-12-18T10:00:39;6.63;;;4.00;;
34775;SDS011;20989;52.566;13.346;2022-12-18T10:03:42;7.07;;;3.83;;
34775;SDS011;20989;52.566;13.346;2022-12-18T10:09:59;13.93;;;3.58;;
34775;SDS011;20989;52.566;13.346;2022-12-18T10:19:39;8.05;;;4.00;;
34775;SDS011;20989;52.566;13.346;2022-12-18T10:26:09;9.50;;;4.03;;
34775;SDS011;20989;52.566;13.346;2022-12-18T10:29:11;10.63;;;3.67;;
34775;SDS011;20989;52.566;13.346;2022-12-18T10:32:20;10.05;;;4.20;;
34775;SDS011;20989;52.566;13.346;2022-12-18T10:35:26;4.35;;;3.70;;
34775;SDS011;20989;52.566;13.346;2022-12-18T10:38:28;6.82;;;3.50;;
34775;SDS011;20989;52.566;13.346;2022-12-18T10:41:30;7.60;;;3.78;;
34775;SDS011;20989;52.566;13.346;2022-12-18T10:44:32;5.20;;;3.35;;
34775;SDS011;20989;52.566;13.346;2022-12-18T10:47:33;4.53;;;3.30;;
34775;SDS011;20989;52.566;13.346;2022-12-18T10:50:34;5.07;;;3.28;;
34775;SDS011;20989;52.566;13.346;2022-12-18T10:53:37;3.45;;;3.15;;
34775;SDS011;20989;52.566;13.346;2022-12-18T10:56:40;3.53;;;3.22;;
34775;SDS011;20989;52.566;13.346;2022-12-18T10:59:49;3.35;;;3.13;;
34775;SDS011;20989;52.566;13.346;2022-12-18T11:02:51;3.83;;;3.40;;
34775;SDS011;20989;52.566;13.346;2022-12-18T11:06:01;6.20;;;4.05;;
34775;SDS011;20989;52.566;13.346;2022-12-18T11:09:05;4.47;;;4.07;;
34775;SDS011;20989;52.566;13.346;2022-12-18T11:12:19;5.55;;;3.70;;
34775;SDS011;20989;52.566;13.346;2022-12-18T11:15:26;16.00;;;5.88;;
34775;SDS011;20989;52.566;13.346;2022-12-18T11:18:30;21.08;;;5.57;;
34775;SDS011;20989;52.566;13.346;2022-12-18T11:21:38;22.05;;;5.18;;
34775;SDS011;20989;52.566;13.346;2022-12-18T11:24:40;13.93;;;4.20;;
34775;SDS011;20989;52.566;13.346;2022-12-18T11:27:41;16.73;;;4.90;;
34775;SDS011;20989;52.566;13.346;2022-12-18T11:34:28;14.88;;;4.57;;
34775;SDS011;20989;52.566;13.346;2022-12-18T11:37:31;8.93;;;4.50;;
34775;SDS011;20989;52.566;13.346;2022-12-18T11:40:35;11.15;;;3.78;;
34775;SDS011;20989;52.566;13.346;2022-12-18T11:43:38;9.85;;;4.03;;
34775;SDS011;20989;52.566;13.346;2022-12-18T11:49:56;4.72;;;4.05;;
34775;SDS011;20989;52.566;13.346;2022-12-18T11:53:01;9.57;;;4.15;;
34775;SDS011;20989;52.566;13.346;2022-12-18T12:06:18;8.65;;;3.72;;
34775;SDS011;20989;52.566;13.346;2022-12-18T12:09:47;8.73;;;3.97;;
34775;SDS011;20989;52.566;13.346;2022-12-18T12:13:07;10.20;;;3.50;;
34775;SDS011;20989;52.566;13.346;2022-12-18T12:23:20;8.43;;;3.70;;
34775;SDS011;20989;52.566;13.346;2022-12-18T12:26:26;5.70;;;3.65;;
34775;SDS011;20989;52.566;13.346;2022-12-18T12:46:56;6.40;;;4.05;;
34775;SDS011;20989;52.566;13.346;2022-12-18T12:50:01;7.80;;;3.60;;
34775;SDS011;20989;52.566;13.346;2022-12-18T12:53:06;10.30;;;3.30;;
34775;SDS011;20989;52.566;13.346;2022-12-18T12:56:09;4.82;;;4.05;;
34775;SDS011;20989;52.566;13.346;2022-12-18T12:59:22;8.15;;;4.18;;
34775;SDS011;20989;52.566;13.346;2022-12-18T13:02:29;12.73;;;3.15;;
34775;SDS011;20989;52.566;13.346;2022-12-18T13:08:58;3.88;;;3.20;;
34775;SDS011;20989;52.566;13.346;2022-12-18T13:12:03;5.28;;;2.95;;
34775;SDS011;20989;52.566;13.346;2022-12-18T13:18:47;12.15;;;3.60;;
34775;SDS011;20989;52.566;13.346;2022-12-18T13:21:53;10.38;;;3.70;;
34775;SDS011;20989;52.566;13.346;2022-12-18T13:24:55;8.45;;;4.05;;
34775;SDS011;20989;52.566;13.346;2022-12-18T13:28:00;5.13;;;3.22;;
34775;SDS011;20989;52.566;13.346;2022-12-18T13:31:01;8.38;;;3.42;;
34775;SDS011;20989;52.566;13.346;2022-12-18T13:34:21;4.45;;;3.35;;
34775;SDS011;20989;52.566;13.346;2022-12-18T13:37:40;5.32;;;3.72;;
34775;SDS011;20989;52.566;13.346;2022-12-18T13:43:56;12.32;;;4.50;;
34775;SDS011;20989;52.566;13.346;2022-12-18T13:47:26;8.20;;;5.28;;
34775;SDS011;20989;52.566;13.346;2022-12-18T13:50:35;6.20;;;5.60;;
34775;SDS011;20989;52.566;13.346;2022-12-18T13:53:47;9.07;;;5.90;;
34775;SDS011;20989;52.566;13.346;2022-12-18T13:56:51;9.25;;;5.72;;
34775;SDS011;20989;52.566;13.346;2022-12-18T13:59:51;16.95;;;9.50;;
34775;SDS011;20989;52.566;13.346;2022-12-18T14:02:52;23.38;;;10.82;;
34775;SDS011;20989;52.566;13.346;2022-12-18T14:05:53;24.95;;;10.05;;
34775;SDS011;20989;52.566;13.346;2022-12-18T14:08:56;20.23;;;7.75;;
34775;SDS011;20989;52.566;13.346;2022-12-18T14:11:57;20.30;;;8.52;;
34775;SDS011;20989;52.566;13.346;2022-12-18T14:18:28;32.28;;;7.82;;
34775;SDS011;20989;52.566;13.346;2022-12-18T14:21:34;20.73;;;7.68;;
34775;SDS011;20989;52.566;13.346;2022-12-18T14:24:35;40.55;;;9.80;;
34775;SDS011;20989;52.566;13.346;2022-12-18T14:27:37;22.08;;;8.90;;
34775;SDS011;20989;52.566;13.346;2022-12-18T14:30:42;22.00;;;8.80;;
34775;SDS011;20989;52.566;13.346;2022-12-18T14:33:45;21.63;;;9.05;;
34775;SDS011;20989;52.566;13.346;2022-12-18T14:36:52;19.83;;;8.80;;
34775;SDS011;20989;52.566;13.346;2022-12-18T14:40:13;21.85;;;8.68;;
34775;SDS011;20989;52.566;13.346;2022-12-18T14:43:14;28.58;;;8.52;;
34775;SDS011;20989;52.566;13.346;2022-12-18T14:46:28;44.42;;;14.77;;
34775;SDS011;20989;52.566;13.346;2022-12-18T14:49:33;50.63;;;21.63;;
34775;SDS011;20989;52.566;13.346;2022-12-18T14:52:34;48.60;;;20.27;;
34775;SDS011;20989;52.566;13.346;2022-12-18T14:55:35;40.78;;;19.88;;
34775;SDS011;20989;52.566;13.346;2022-12-18T14:58:36;44.85;;;20.20;;
34775;SDS011;20989;52.566;13.346;2022-12-18T15:01:38;40.10;;;18.70;;
34775;SDS011;20989;52.566;13.346;2022-12-18T15:04:45;34.92;;;17.20;;
34775;SDS011;20989;52.566;13.346;2022-12-18T15:07:47;31.05;;;17.05;;
34775;SDS011;20989;52.566;13.346;2022-12-18T15:10:50;30.50;;;14.48;;
34775;SDS011;20989;52.566;13.346;2022-12-18T15:13:50;38.55;;;15.57;;
34775;SDS011;20989;52.566;13.346;2022-12-18T15:16:54;35.55;;;17.92;;
34775;SDS011;20989;52.566;13.346;2022-12-18T15:20:02;29.77;;;16.17;;
34775;SDS011;20989;52.566;13.346;2022-12-18T15:26:35;32.95;;;15.27;;
34775;SDS011;20989;52.566;13.346;2022-12-18T15:29:37;25.90;;;14.27;;
34775;SDS011;20989;52.566;13.346;2022-12-18T15:32:42;23.20;;;13.40;;
34775;SDS011;20989;52.566;13.346;2022-12-18T15:35:43;24.20;;;13.13;;
34775;SDS011;20989;52.566;13.346;2022-12-18T15:38:47;21.10;;;12.20;;
34775;SDS011;20989;52.566;13.346;2022-12-18T15:41:48;25.40;;;12.32;;
34775;SDS011;20989;52.566;13.346;2022-12-18T15:45:11;29.75;;;13.00;;
34775;SDS011;20989;52.566;13.346;2022-12-18T15:48:22;22.40;;;11.30;;
34775;SDS011;20989;52.566;13.346;2022-12-18T15:51:24;27.85;;;12.43;;
34775;SDS011;20989;52.566;13.346;2022-12-18T15:54:28;20.63;;;12.13;;
34775;SDS011;20989;52.566;13.346;2022-12-18T15:57:47;25.65;;;11.52;;
34775;SDS011;20989;52.566;13.346;2022-12-18T16:00:48;30.67;;;12.65;;
34775;SDS011;20989;52.566;13.346;2022-12-18T16:03:49;21.50;;;12.35;;
34775;SDS011;20989;52.566;13.346;2022-12-18T16:06:49;23.95;;;12.38;;
34775;SDS011;20989;52.566;13.346;2022-12-18T16:09:51;14.85;;;11.07;;
34775;SDS011;20989;52.566;13.346;2022-12-18T16:12:52;19.33;;;11.23;;
34775;SDS011;20989;52.566;13.346;2022-12-18T16:15:53;23.10;;;11.02;;
34775;SDS011;20989;52.566;13.346;2022-12-18T16:18:53;20.55;;;10.98;;
34775;SDS011;20989;52.566;13.346;2022-12-18T16:21:55;14.02;;;11.38;;
34775;SDS011;20989;52.566;13.346;2022-12-18T16:24:57;21.40;;;11.15;;
34775;SDS011;20989;52.566;13.346;2022-12-18T16:27:58;18.08;;;10.95;;
34775;SDS011;20989;52.566;13.346;2022-12-18T16:30:58;17.50;;;10.95;;
34775;SDS011;20989;52.566;13.346;2022-12-18T16:37:29;16.90;;;10.93;;
34775;SDS011;20989;52.566;13.346;2022-12-18T16:40:30;14.45;;;10.88;;
34775;SDS011;20989;52.566;13.346;2022-12-18T16:43:32;17.02;;;11.48;;
34775;SDS011;20989;52.566;13.346;2022-12-18T16:46:32;15.93;;;10.68;;
34775;SDS011;20989;52.566;13.346;2022-12-18T16:49:33;15.57;;;10.50;;
34775;SDS011;20989;52.566;13.346;2022-12-18T16:52:34;17.25;;;11.55;;
34775;SDS011;20989;52.566;13.346;2022-12-18T16:55:35;13.15;;;10.30;;
34775;SDS011;20989;52.566;13.346;2022-12-18T16:58:36;15.35;;;10.55;;
34775;SDS011;20989;52.566;13.346;2022-12-18T17:01:37;13.70;;;11.05;;
34775;SDS011;20989;52.566;13.346;2022-12-18T17:04:38;14.30;;;10.55;;
34775;SDS011;20989;52.566;13.346;2022-12-18T17:07:38;19.63;;;11.05;;
34775;SDS011;20989;52.566;13.346;2022-12-18T17:10:39;15.98;;;9.30;;
34775;SDS011;20989;52.566;13.346;2022-12-18T17:13:40;14.85;;;10.40;;
34775;SDS011;20989;52.566;13.346;2022-12-18T17:16:40;12.35;;;8.82;;
34775;SDS011;20989;52.566;13.346;2022-12-18T17:19:41;17.85;;;9.57;;
34775;SDS011;20989;52.566;13.346;2022-12-18T17:22:42;11.13;;;9.32;;
34775;SDS011;20989;52.566;13.346;2022-12-18T17:25:43;12.65;;;9.55;;
34775;SDS011;20989;52.566;13.346;2022-12-18T17:28:43;12.10;;;9.80;;
34775;SDS011;20989;52.566;13.346;2022-12-18T17:31:44;14.65;;;10.10;;
34775;SDS011;20989;52.566;13.346;2022-12-18T17:34:46;11.43;;;9.35;;
34775;SDS011;20989;52.566;13.346;2022-12-18T17:37:46;11.80;;;9.63;;
34775;SDS011;20989;52.566;13.346;2022-12-18T17:40:47;11.95;;;10.02;;
34775;SDS011;20989;52.566;13.346;2022-12-18T17:43:58;14.00;;;10.27;;
34775;SDS011;20989;52.566;13.346;2022-12-18T17:47:01;15.48;;;9.40;;
34775;SDS011;20989;52.566;13.346;2022-12-18T17:50:02;10.95;;;9.02;;
34775;SDS011;20989;52.566;13.346;2022-12-18T17:53:03;11.73;;;10.00;;
34775;SDS011;20989;52.566;13.346;2022-12-18T17:56:04;12.38;;;9.75;;
34775;SDS011;20989;52.566;13.346;2022-12-18T17:59:05;10.38;;;9.00;;
34775;SDS011;20989;52.566;13.346;2022-12-18T18:02:08;11.00;;;9.60;;
34775;SDS011;20989;52.566;13.346;2022-12-18T18:05:11;15.07;;;10.65;;
34775;SDS011;20989;52.566;13.346;2022-12-18T18:08:12;13.50;;;9.88;;
34775;SDS011;20989;52.566;13.346;2022-12-18T18:11:13;14.23;;;9.93;;
34775;SDS011;20989;52.566;13.346;2022-12-18T18:14:34;14.82;;;11.38;;
34775;SDS011;20989;52.566;13.346;2022-12-18T18:17:35;14.77;;;11.02;;
34775;SDS011;20989;52.566;13.346;2022-12-18T18:20:39;13.43;;;10.48;;
34775;SDS011;20989;52.566;13.346;2022-12-18T18:23:39;13.63;;;10.45;;
34775;SDS011;20989;52.566;13.346;2022-12-18T18:26:40;15.75;;;10.82;;
34775;SDS011;20989;52.566;13.346;2022-12-18T18:29:41;14.02;;;11.00;;
34775;SDS011;20989;52.566;13.346;2022-12-18T18:32:42;16.40;;;11.88;;
34775;SDS011;20989;52.566;13.346;2022-12-18T18:35:43;13.63;;;10.75;;
34775;SDS011;20989;52.566;13.346;2022-12-18T18:38:45;12.68;;;10.65;;
34775;SDS011;20989;52.566;13.346;2022-12-18T18:41:46;17.67;;;10.50;;
34775;SDS011;20989;52.566;13.346;2022-12-18T18:44:47;13.02;;;10.85;;
34775;SDS011;20989;52.566;13.346;2022-12-18T18:47:48;16.98;;;10.95;;
34775;SDS011;20989;52.566;13.346;2022-12-18T18:50:56;13.55;;;11.57;;
34775;SDS011;20989;52.566;13.346;2022-12-18T18:53:57;14.50;;;11.23;;
34775;SDS011;20989;52.566;13.346;2022-12-18T18:56:59;14.35;;;12.20;;
34775;SDS011;20989;52.566;13.346;2022-12-18T18:59:59;17.55;;;12.05;;
34775;SDS011;20989;52.566;13.346;2022-12-18T19:03:00;18.80;;;13.23;;
34775;SDS011;20989;52.566;13.346;2022-12-18T19:06:01;19.38;;;12.32;;
34775;SDS011;20989;52.566;13.346;2022-12-18T19:09:02;15.98;;;11.93;;
34775;SDS011;20989;52.566;13.346;2022-12-18T19:12:04;17.35;;;11.68;;
34775;SDS011;20989;52.566;13.346;2022-12-18T19:15:23;15.07;;;12.00;;
34775;SDS011;20989;52.566;13.346;2022-12-18T19:18:24;16.70;;;12.60;;
34775;SDS011;20989;52.566;13.346;2022-12-18T19:21:25;19.88;;;13.50;;
34775;SDS011;20989;52.566;13.346;2022-12-18T19:24:26;17.30;;;13.63;;
34775;SDS011;20989;52.566;13.346;2022-12-18T19:27:27;18.88;;;12.30;;
34775;SDS011;20989;52.566;13.346;2022-12-18T19:30:28;17.05;;;13.27;;
34775;SDS011;20989;52.566;13.346;2022-12-18T19:33:29;20.73;;;13.23;;
34775;SDS011;20989;52.566;13.346;2022-12-18T19:36:31;19.00;;;13.25;;